Warrensburg, IL (62573)

6:27 AM CDT on July 29, 2014 (GMT -0500)
Forsyth Pkwy (KILFORSY2) Elev 669 ft | 39.93 °N, 88.97 °W | Change Station

Current weather conditions updated 2 minutes ago

Clear
Clear
54.5 °F
Feels Like 54.5 °F
N
0.0
Wind Variable Wind from West
Gusts 0.0 mph

Today is forecast to be Warmer than yesterday.

Today
High -- | Low -- °F
--% Chance of Precip.
Yesterday
High -- | Low -- °F
Precip. -- in
5:52 AM 8:12 PM
Waxing Crescent, 6% visible
Pressure 30.10 in
Visibility 10.0 miles
Clouds Clear
Dew Point 52 °F
Humidity 93%
Rainfall 0.00 in
Snow Depth Not available.
UV 0 out of 12
Pollen 6.70 out of 12
Air Quality Not available.
Flu Activity Not available.
METAR KDEC 291054Z 30006KT 10SM CLR 16/11 A3010 RMK AO2 SLP191 T01560111

More Conditions Fewer Conditions

Pressure 30.10 in
Visibility 10.0 miles
Clouds Clear
Dew Point 52 °F
Humidity 93%
Rainfall 0.00 in
Snow Depth Not available.
UV 0 out of 12
Pollen 6.70 out of 12
Air Quality Not available.
Flu Activity Not available.
METAR KDEC 291054Z 30006KT 10SM CLR 16/11 A3010 RMK AO2 SLP191 T01560111

More Conditions Fewer Conditions

10-Day Weather Forecast

Almanac

Astronomy

Jul. 29, 2014 Rise Set
Actual Time 5:52 AM CDT 8:12 PM CDT
Civil Twilight 5:21 AM CDT 8:43 PM CDT
Nautical Twilight 4:43 AM CDT 9:20 PM CDT
Astronomical Twilight 4:02 AM CDT 10:02 PM CDT
Moon 8:28 AM CDT 9:25 PM CDT
Length of Visible Light 15h 21m
Length of Day
14h 20m
Tomorrow will be 1m 54s shorter.
Waxing Crescent, 6% of the Moon is Illuminated
Today
Waxing Crescent
Aug 3
First Quarter
Aug 10
Full
Aug 17
Last Quarter
Aug 25
New

Today's Extremes

State Highs State Lows

Community

WunderPhotos

Upload Photos

1,738,685 photos uploaded!

Nearby

Snow Depth

Station Depth Elevation
No new snow has been reported.

Earthquake Activity

City Distance Mag. Time & Date
No recent earthquake activity has been reported nearby.
Minimum magnitude displayed is 2.5.

Coastal Water Temperatures

Place Temperature
No Stations Reporting

Nearby Weather Stations

Station Location Temp. Dew Point Humidity Wind Precip. Elev Updated Type
Forsyth Pkwy, Forsyth, IL 54.5 °F 52 °F 93% West  at  0.0 mph 0.00 in / hr 669 ft 6:25 AM CDT Normal
APPLEVILLE, Mt Auburn, IL 54.9 °F 33 °F 43% WSW  at  0.0 mph - / hr 607 ft 6:23 AM CDT Normal
Sandhill Dr. & Lost Bridge Rd., Decatur, IL 58.6 °F 58 °F 96% West  at  0.3 mph 0.00 in / hr 676 ft 6:27 AM CDT Rapid Fire
Hillcrest, Clinton, IL 56.5 °F 0 °F - NW  at  0.7 mph 0.00 in / hr 738 ft 6:27 AM CDT Rapid Fire
South Weather Station, Mechanicsburg, IL 56.3 °F 55 °F 96% North  at  0.0 mph 0.00 in / hr 587 ft 6:27 AM CDT Rapid Fire
MesoWest ATLNTA , Atlanta, IL 51 °F - - North  at  - 0.00 in / hr 658 ft 3:00 AM CDT MADIS

Show More Stations Show Fewer Stations